createdAt,value
2023-03-26T00:00:33.232Z,0.68
2023-03-26T00:03:02.502Z,0.48
2023-03-26T00:05:33.611Z,0.33
2023-03-26T00:08:03.277Z,0.27
2023-03-26T00:10:32.631Z,-0.30
2023-03-26T00:13:01.759Z,-0.21
2023-03-26T00:15:31.433Z,0.07
2023-03-26T00:18:02.948Z,0.17
2023-03-26T00:20:34.654Z,0.91
2023-03-26T00:23:04.182Z,0.24
2023-03-26T00:25:34.711Z,0.41
2023-03-26T00:28:04.332Z,0.42
2023-03-26T00:30:36.143Z,1.37
2023-03-26T00:33:05.457Z,1.05
2023-03-26T00:35:38.196Z,1.15
2023-03-26T00:38:07.667Z,1.40
2023-03-26T00:40:37.195Z,1.32
2023-03-26T00:43:19.755Z,1.60
2023-03-26T00:45:50.128Z,1.73
2023-03-26T00:48:20.875Z,1.74
2023-03-26T00:50:53.060Z,1.63
2023-03-26T00:53:22.580Z,1.95
2023-03-26T00:55:52.180Z,1.86
2023-03-26T00:58:22.739Z,1.35
2023-03-26T01:00:57.829Z,2.03
2023-03-26T01:03:29.652Z,1.55
2023-03-26T01:06:05.102Z,2.10
2023-03-26T01:08:37.262Z,2.34
2023-03-26T01:11:14.505Z,2.27
2023-03-26T01:13:48.368Z,1.55
2023-03-26T01:16:23.776Z,2.45
2023-03-26T01:18:53.260Z,2.53
2023-03-26T01:21:29.057Z,2.04
2023-03-26T01:24:03.655Z,2.31
2023-03-26T01:26:53.207Z,1.85
2023-03-26T01:29:27.173Z,2.48
2023-03-26T01:32:07.074Z,2.42
2023-03-26T01:34:47.463Z,2.36
2023-03-26T01:37:22.830Z,2.79
2023-03-26T01:39:58.750Z,2.54
2023-03-26T01:42:36.563Z,2.91
2023-03-26T01:45:11.954Z,3.19
2023-03-26T01:47:43.889Z,2.52
2023-03-26T01:50:13.370Z,3.32
2023-03-26T01:52:42.823Z,2.89
2023-03-26T01:55:14.827Z,3.35
2023-03-26T01:57:54.491Z,3.94
2023-03-26T02:00:31.190Z,3.89
2023-03-26T02:03:23.896Z,3.33
2023-03-26T02:05:59.685Z,4.16
2023-03-26T02:08:37.114Z,4.18
2023-03-26T02:11:13.317Z,3.59
2023-03-26T02:13:44.495Z,3.99
2023-03-26T02:16:16.836Z,4.28
2023-03-26T02:18:46.576Z,3.84
2023-03-26T02:21:20.643Z,3.89
2023-03-26T02:23:58.193Z,4.97
2023-03-26T02:26:28.841Z,4.82
2023-03-26T02:28:58.808Z,5.47
2023-03-26T02:31:28.161Z,5.67
2023-03-26T02:33:57.695Z,5.41
2023-03-26T02:36:28.420Z,5.13
2023-03-26T02:38:58.755Z,5.83
2023-03-26T02:41:29.686Z,6.12
2023-03-26T02:43:58.954Z,6.10
2023-03-26T02:46:28.266Z,5.73
2023-03-26T02:48:57.514Z,5.53
2023-03-26T02:51:27.769Z,6.10
2023-03-26T02:53:56.873Z,5.19
2023-03-26T02:56:26.126Z,5.80
2023-03-26T02:58:56.806Z,6.49
2023-03-26T03:01:26.215Z,6.61
2023-03-26T03:03:55.539Z,6.72
2023-03-26T03:06:26.879Z,6.82
2023-03-26T03:08:56.120Z,6.34
2023-03-26T03:11:25.344Z,5.99
2023-03-26T03:13:56.394Z,6.61
2023-03-26T03:16:26.209Z,6.51
2023-03-26T03:18:58.094Z,5.89
2023-03-26T03:21:28.912Z,6.56
2023-03-26T03:24:00.627Z,6.32
2023-03-26T03:26:31.045Z,7.11
2023-03-26T03:29:02.066Z,6.94
2023-03-26T03:31:31.321Z,7.41
2023-03-26T03:34:00.474Z,7.67
2023-03-26T03:36:30.827Z,7.19
2023-03-26T03:39:03.044Z,6.91
2023-03-26T03:41:32.569Z,7.96
2023-03-26T03:44:03.325Z,7.10
2023-03-26T03:46:32.614Z,7.79
2023-03-26T03:49:02.885Z,8.61
2023-03-26T03:51:32.088Z,8.21
2023-03-26T03:54:01.327Z,9.11
2023-03-26T03:56:30.765Z,9.28
2023-03-26T03:59:00.154Z,9.31
2023-03-26T04:01:31.236Z,8.63
2023-03-26T04:04:01.085Z,8.80
2023-03-26T04:06:30.764Z,9.10
2023-03-26T04:09:00.022Z,9.04
2023-03-26T04:11:29.379Z,8.65
2023-03-26T04:13:58.598Z,9.13
2023-03-26T04:16:27.922Z,9.25
2023-03-26T04:18:58.995Z,9.21
2023-03-26T04:21:30.879Z,9.35
2023-03-26T04:24:02.183Z,9.20
2023-03-26T04:26:31.882Z,9.31
2023-03-26T04:29:03.870Z,9.94
2023-03-26T04:31:34.642Z,10.38
2023-03-26T04:34:14.690Z,10.64
2023-03-26T04:36:46.779Z,10.37
2023-03-26T04:39:16.113Z,9.76
2023-03-26T04:41:46.464Z,10.53
2023-03-26T04:44:17.695Z,10.07
2023-03-26T04:46:47.848Z,9.83
2023-03-26T04:49:18.554Z,10.62
2023-03-26T04:51:49.226Z,10.55
2023-03-26T04:54:20.631Z,10.21
2023-03-26T04:56:54.927Z,10.26
2023-03-26T04:59:30.774Z,10.94
2023-03-26T05:02:00.639Z,10.91
2023-03-26T05:04:31.679Z,10.02
2023-03-26T05:07:01.345Z,10.49
2023-03-26T05:09:31.155Z,10.45
2023-03-26T05:12:00.528Z,10.82
2023-03-26T05:14:29.825Z,11.07
2023-03-26T05:17:01.135Z,9.99
2023-03-26T05:19:31.998Z,11.07
2023-03-26T05:22:01.388Z,10.52
2023-03-26T05:24:30.948Z,11.27
2023-03-26T05:27:00.298Z,10.93
2023-03-26T05:29:29.611Z,11.12
2023-03-26T05:31:58.887Z,11.12
2023-03-26T05:34:28.146Z,11.13
2023-03-26T05:36:58.946Z,11.39
2023-03-26T05:39:30.467Z,11.40
2023-03-26T05:41:59.732Z,10.27
2023-03-26T05:44:29.149Z,11.16
